»·PEaware :: N605RF KBUR-KLAS

N605RF :: KBUR-KLAS

FLIGHT INFORMATION

Flight Status: Arrived
Operator: Privately registered:
United States
More flights under this callsign
Pilot: Anonymous 16342 (16342)
Aircraft: BOMBARDIER BD-100 CHALLENGER 300
(CL30)
More flights by this aircraft type
Origin: KBUR Bob Hope-Burbank
United States
Destination: KLAS McCarran Intl
United States
More flights between these airports :: More routes between these airports
Route: +VNY3 DAG MISEN KEPEC6
File this flight plan on PilotEdge
Remarks: I-5 attempt
Altitude:
(Current/Filed)
31,000ft
Speed:
(Current/Filed)
400kts
Departed: 27-Jun-18 08:59 AM
Arrived: 27-Jun-18 09:40 AM
Distance/Time
Traveled:
194nm/0:41
Distance/Time
To Go:
Arrived

Flight Plot

Page will automatically refresh every two minutes.

Flight plan parsing failed; only flown route is shown


Map Options




Map Legend


Flown Route
Filed Route
Departure Airport
Arrival Airport
Navaid (VOR, NDB)
Fix

Horizontal Profiles

Position Reports

Time Latitude Longitude Heading Altitude Ground
Speed
27-Jun-18 08:40 34.200500 -118.365995 182 732ft 0kts
27-Jun-18 08:41 34.200500 -118.365995 182 732ft 0kts
27-Jun-18 08:42 34.200500 -118.365995 182 732ft 0kts
27-Jun-18 08:43 34.200500 -118.365995 182 732ft 0kts
27-Jun-18 08:44 34.200500 -118.365995 182 732ft 0kts
27-Jun-18 08:45 34.200500 -118.365995 182 732ft 0kts
27-Jun-18 08:46 34.200500 -118.365995 182 732ft 0kts
27-Jun-18 08:47 34.200500 -118.365995 182 732ft 0kts
27-Jun-18 08:48 34.200500 -118.365995 182 732ft 0kts
27-Jun-18 08:49 34.200500 -118.365995 182 732ft 0kts
27-Jun-18 08:50 34.199715 -118.365965 180 732ft 4kts
27-Jun-18 08:51 34.198905 -118.362782 90 728ft 20kts
27-Jun-18 08:52 34.200110 -118.358266 347 725ft 14kts
27-Jun-18 08:53 34.204206 -118.359384 345 738ft 16kts
27-Jun-18 08:54 34.209150 -118.360730 349 753ft 20kts
27-Jun-18 08:55 34.212004 -118.361420 36 769ft 0kts
27-Jun-18 08:56 34.212004 -118.361420 36 769ft 0kts
27-Jun-18 08:57 34.212004 -118.361420 36 769ft 0kts
27-Jun-18 08:58 34.212113 -118.360582 135 768ft 19kts
27-Jun-18 08:59 34.189985 -118.355311 175 1493ft 171kts
27-Jun-18 09:00 34.157303 -118.392772 261 4023ft 198kts
27-Jun-18 09:01 34.191979 -118.421061 352 6605ft 200kts
27-Jun-18 09:02 34.255178 -118.430162 352 11209ft 279kts
27-Jun-18 09:03 34.333794 -118.439088 352 14006ft 320kts
27-Jun-18 09:04 34.431373 -118.450879 354 13997ft 370kts
27-Jun-18 09:05 34.497715 -118.372989 63 13975ft 360kts
27-Jun-18 09:06 34.540632 -118.275502 61 17443ft 324kts
27-Jun-18 09:07 34.583251 -118.176665 62 21660ft 344kts
27-Jun-18 09:08 34.627661 -118.062934 79 23027ft 416kts
27-Jun-18 09:09 34.646568 -117.918236 82 23016ft 449kts
27-Jun-18 09:10 34.664578 -117.769746 73 23968ft 427kts
27-Jun-18 09:11 34.698158 -117.633129 73 26785ft 428kts
27-Jun-18 09:12 34.733545 -117.493224 73 29362ft 445kts
27-Jun-18 09:13 34.770667 -117.346763 73 31055ft 472kts
27-Jun-18 09:14 34.808403 -117.197311 73 31028ft 465kts
27-Jun-18 09:15 34.845205 -117.050737 73 30988ft 457kts
27-Jun-18 09:16 34.879673 -116.912728 73 30518ft 399kts
27-Jun-18 09:17 34.911221 -116.785776 73 27570ft 387kts
27-Jun-18 09:18 34.941606 -116.662887 74 24726ft 372kts
27-Jun-18 09:19 34.983598 -116.558289 48 23844ft 350kts
27-Jun-18 09:20 35.049162 -116.472099 46 23971ft 367kts
27-Jun-18 09:21 35.122723 -116.378846 45 24005ft 410kts
27-Jun-18 09:22 35.197226 -116.285223 46 23220ft 413kts
27-Jun-18 09:23 35.275884 -116.186373 46 21709ft 400kts
27-Jun-18 09:24 35.351956 -116.090554 46 20202ft 387kts
27-Jun-18 09:25 35.426880 -115.995921 46 18205ft 384kts
27-Jun-18 09:26 35.500158 -115.903113 46 16204ft 374kts
27-Jun-18 09:27 35.570826 -115.813364 46 14207ft 360kts
27-Jun-18 09:28 35.634838 -115.731869 46 13025ft 317kts
27-Jun-18 09:29 35.694529 -115.655682 46 13017ft 313kts
27-Jun-18 09:30 35.758315 -115.585678 14 13015ft 311kts
27-Jun-18 09:31 35.801629 -115.503073 81 11695ft 307kts
27-Jun-18 09:32 35.814561 -115.405315 81 10176ft 275kts
27-Jun-18 09:33 35.840364 -115.330024 18 8719ft 257kts
27-Jun-18 09:34 35.905020 -115.313499 11 7292ft 240kts
27-Jun-18 09:35 35.966016 -115.297881 11 5976ft 211kts
27-Jun-18 09:36 36.020977 -115.283167 11 4498ft 185kts
27-Jun-18 09:37 36.063890 -115.258770 48 3596ft 164kts
27-Jun-18 09:38 36.072544 -115.209100 79 3038ft 150kts
27-Jun-18 09:39 36.073617 -115.159511 88 2179ft 128kts
27-Jun-18 09:40 36.074489 -115.139047 60 2083ft 11kts
27-Jun-18 09:41 36.075870 -115.137941 356 2078ft 19kts
27-Jun-18 09:42 36.077416 -115.137971 311 2075ft 3kts
27-Jun-18 09:43 36.077559 -115.144077 275 2094ft 20kts
27-Jun-18 09:44 36.077866 -115.148470 273 2110ft 9kts
27-Jun-18 09:45 36.078046 -115.157417 270 2140ft 38kts
27-Jun-18 09:46 36.078015 -115.166122 268 2168ft 26kts
27-Jun-18 09:47 36.080095 -115.170032 26 2175ft 24kts
27-Jun-18 09:48 36.087187 -115.165953 25 2150ft 31kts
27-Jun-18 09:49 36.093229 -115.162524 25 2122ft 17kts
27-Jun-18 09:50 36.097584 -115.160109 331 2106ft 7kts
27-Jun-18 09:51 36.097639 -115.160161 315 2106ft 0kts
27-Jun-18 09:52 36.098367 -115.161336 121 2110ft 0kts
27-Jun-18 09:53 36.098367 -115.161336 121 2110ft 0kts
27-Jun-18 09:54 36.098367 -115.161336 121 2110ft 0kts

Navigation Log

Ident Type
Flight plan parsing failed, navigation log unavailable